createdAt,value
2023-02-18T00:01:28.000Z,8.1
2023-02-18T00:05:01.000Z,7.7
2023-02-18T00:08:33.000Z,7.9
2023-02-18T00:12:06.000Z,7.7
2023-02-18T00:15:39.000Z,7.9
2023-02-18T00:19:11.000Z,8.3
2023-02-18T00:22:03.000Z,7.9
2023-02-18T00:25:35.000Z,8
2023-02-18T00:29:08.000Z,8
2023-02-18T00:32:40.000Z,7.4
2023-02-18T00:36:13.000Z,6.9
2023-02-18T00:39:46.000Z,7.2
2023-02-18T00:43:18.000Z,6.7
2023-02-18T00:46:51.000Z,7.6
2023-02-18T00:50:24.000Z,6.3
2023-02-18T00:53:57.000Z,6
2023-02-18T00:57:29.000Z,6.2
2023-02-18T01:00:26.000Z,5.9
2023-02-18T01:03:58.000Z,6.2
2023-02-18T01:07:31.000Z,6.5
2023-02-18T01:11:04.000Z,6.2
2023-02-18T01:14:36.000Z,7
2023-02-18T01:18:10.000Z,6.3
2023-02-18T01:21:42.000Z,6.7
2023-02-18T01:25:15.000Z,6.4
2023-02-18T01:28:48.000Z,7.1
2023-02-18T01:32:20.000Z,6.1
2023-02-18T01:35:53.000Z,6.1
2023-02-18T01:38:44.000Z,6.5
2023-02-18T01:42:17.000Z,6.3
2023-02-18T01:45:49.000Z,6.4
2023-02-18T01:49:22.000Z,6.4
2023-02-18T01:52:54.000Z,6.5
2023-02-18T01:56:27.000Z,5.8
2023-02-18T02:00:00.000Z,6
2023-02-18T02:03:32.000Z,5.7
2023-02-18T02:07:05.000Z,4.9
2023-02-18T02:10:38.000Z,5.2
2023-02-18T02:14:10.000Z,5.1
2023-02-18T02:17:01.000Z,4.8
2023-02-18T02:20:34.000Z,4.2
2023-02-18T02:24:07.000Z,4.1
2023-02-18T02:27:39.000Z,3.9
2023-02-18T02:31:12.000Z,3.8
2023-02-18T02:34:44.000Z,4
2023-02-18T02:38:17.000Z,4.2
2023-02-18T02:41:50.000Z,3.6
2023-02-18T02:45:22.000Z,3.6
2023-02-18T02:48:55.000Z,3.6
2023-02-18T02:52:28.000Z,3.1
2023-02-18T02:55:19.000Z,3.5
2023-02-18T02:58:52.000Z,3.1
2023-02-18T03:02:24.000Z,3.1
2023-02-18T03:05:57.000Z,3.2
2023-02-18T03:09:32.000Z,2.7
2023-02-18T03:13:04.000Z,2.8
2023-02-18T03:16:37.000Z,2.7
2023-02-18T03:20:10.000Z,2.5
2023-02-18T03:23:42.000Z,2.7
2023-02-18T03:27:15.000Z,2.4
2023-02-18T03:30:48.000Z,2.3
2023-02-18T03:33:39.000Z,2
2023-02-18T03:37:12.000Z,2.2
2023-02-18T03:40:44.000Z,2.1
2023-02-18T03:44:17.000Z,2.1
2023-02-18T03:47:50.000Z,2
2023-02-18T03:51:23.000Z,1.8
2023-02-18T03:54:55.000Z,1.9
2023-02-18T03:58:28.000Z,1.8
2023-02-18T04:02:01.000Z,1.9
2023-02-18T04:05:33.000Z,1.6
2023-02-18T04:09:06.000Z,1.5
2023-02-18T04:11:57.000Z,1.2
2023-02-18T04:15:30.000Z,1.2
2023-02-18T04:19:03.000Z,1.3
2023-02-18T04:22:35.000Z,1.2
2023-02-18T04:26:08.000Z,1.1
2023-02-18T04:29:41.000Z,0.9
2023-02-18T04:33:13.000Z,0.9
2023-02-18T04:36:46.000Z,0.8
2023-02-18T04:40:19.000Z,0.9
2023-02-18T04:43:51.000Z,0.6
2023-02-18T04:47:24.000Z,0.6
2023-02-18T04:50:15.000Z,0.7
2023-02-18T04:53:48.000Z,0.5
2023-02-18T04:57:21.000Z,0.4
2023-02-18T05:00:53.000Z,0.5
2023-02-18T05:04:26.000Z,0.6
2023-02-18T05:07:59.000Z,0.4
2023-02-18T05:11:31.000Z,0.8
2023-02-18T05:15:04.000Z,0.7
2023-02-18T05:18:37.000Z,0.5
2023-02-18T05:22:09.000Z,0.7
2023-02-18T05:25:42.000Z,0.6
2023-02-18T05:28:33.000Z,0.9
2023-02-18T05:32:06.000Z,0.7
2023-02-18T05:35:38.000Z,0.6
2023-02-18T05:39:11.000Z,0.6
2023-02-18T05:42:44.000Z,0.6
2023-02-18T05:46:16.000Z,0.7
2023-02-18T05:49:49.000Z,0.7
2023-02-18T05:53:22.000Z,0.7
2023-02-18T05:56:54.000Z,0.7
2023-02-18T06:00:27.000Z,0.7
2023-02-18T06:04:00.000Z,0.6
2023-02-18T06:06:51.000Z,0.5
2023-02-18T06:10:23.000Z,0.5
2023-02-18T06:13:56.000Z,0.4
2023-02-18T06:17:29.000Z,0.7
2023-02-18T06:21:01.000Z,0.5
2023-02-18T06:24:34.000Z,0.5
2023-02-18T06:28:07.000Z,0.4
2023-02-18T06:31:40.000Z,0.3
2023-02-18T06:35:13.000Z,0.3
2023-02-18T06:38:45.000Z,0.1
2023-02-18T06:42:18.000Z,0.2
2023-02-18T06:45:09.000Z,0.4
2023-02-18T06:48:42.000Z,0.3
2023-02-18T06:52:14.000Z,0.2
2023-02-18T06:55:47.000Z,0.3
2023-02-18T06:59:20.000Z,0.4
2023-02-18T07:02:53.000Z,0.4
2023-02-18T07:06:25.000Z,0.3
2023-02-18T07:09:58.000Z,0.5
2023-02-18T07:13:31.000Z,0.3
2023-02-18T07:17:04.000Z,0.2
2023-02-18T07:20:37.000Z,0.3
2023-02-18T07:23:28.000Z,0.4
2023-02-18T07:27:01.000Z,0.1
2023-02-18T07:30:33.000Z,0.3
2023-02-18T07:34:06.000Z,0.3
2023-02-18T07:37:38.000Z,0.3
2023-02-18T07:41:11.000Z,0.3
2023-02-18T07:44:44.000Z,0.3
2023-02-18T07:48:16.000Z,0.5
2023-02-18T07:51:49.000Z,0.5
2023-02-18T07:55:22.000Z,0.6
2023-02-18T07:58:54.000Z,0.7
2023-02-18T08:01:46.000Z,0.8
2023-02-18T08:05:18.000Z,1.1
2023-02-18T08:08:51.000Z,1.2
2023-02-18T08:12:24.000Z,1.2
2023-02-18T08:15:57.000Z,1.2
2023-02-18T08:19:29.000Z,1.4
2023-02-18T08:23:02.000Z,1.3
2023-02-18T08:26:35.000Z,1.1
2023-02-18T08:30:24.000Z,1.1
2023-02-18T08:33:57.000Z,0.9
2023-02-18T08:37:30.000Z,0.9
2023-02-18T08:40:37.000Z,0.9
2023-02-18T08:44:10.000Z,1
2023-02-18T08:47:43.000Z,1
2023-02-18T08:51:45.000Z,0.8
2023-02-18T08:55:17.000Z,1.1
2023-02-18T08:58:50.000Z,1.6
2023-02-18T09:02:22.000Z,1.2
2023-02-18T09:05:55.000Z,1.1
2023-02-18T09:09:28.000Z,1.5
2023-02-18T09:13:00.000Z,1.4
2023-02-18T09:16:33.000Z,1.8
2023-02-18T09:19:24.000Z,1.9
2023-02-18T09:22:57.000Z,1.9
2023-02-18T09:26:29.000Z,1.8
2023-02-18T09:30:02.000Z,1.5
2023-02-18T09:33:35.000Z,1.6
2023-02-18T09:37:11.000Z,1.4
2023-02-18T09:40:44.000Z,1.5
2023-02-18T09:44:16.000Z,1.7
2023-02-18T09:47:49.000Z,1.7
2023-02-18T09:51:22.000Z,1.3
2023-02-18T09:54:54.000Z,1.4
2023-02-18T09:57:45.000Z,2
2023-02-18T10:01:18.000Z,1.4
2023-02-18T10:04:51.000Z,1.7
2023-02-18T10:08:23.000Z,1.2
2023-02-18T10:11:56.000Z,1.4
2023-02-18T10:15:29.000Z,1.1
2023-02-18T10:19:01.000Z,1.1
2023-02-18T10:22:34.000Z,1.2
2023-02-18T10:26:07.000Z,1.3
2023-02-18T10:29:39.000Z,1.1
2023-02-18T10:33:12.000Z,2.9
2023-02-18T10:36:04.000Z,1.5
2023-02-18T10:39:36.000Z,2
2023-02-18T10:43:09.000Z,2.3
2023-02-18T10:46:42.000Z,1.6
2023-02-18T10:50:14.000Z,1.9
2023-02-18T10:53:47.000Z,1.3
2023-02-18T10:57:20.000Z,1.3
2023-02-18T11:00:52.000Z,0.9
2023-02-18T11:04:25.000Z,1
2023-02-18T11:07:58.000Z,0.8
2023-02-18T11:11:31.000Z,1.1
2023-02-18T11:14:22.000Z,0.7
2023-02-18T11:17:54.000Z,0.7
2023-02-18T11:21:27.000Z,1.7
2023-02-18T11:25:00.000Z,0.9
2023-02-18T11:28:32.000Z,0.8
2023-02-18T11:32:05.000Z,0.7
2023-02-18T11:35:38.000Z,1.1
2023-02-18T11:39:10.000Z,1.5
2023-02-18T11:42:43.000Z,0.9
2023-02-18T11:46:16.000Z,1
2023-02-18T11:49:48.000Z,0.8
2023-02-18T11:52:40.000Z,1.3
2023-02-18T11:56:12.000Z,1.1
2023-02-18T11:59:45.000Z,1.7
2023-02-18T12:03:18.000Z,1.2
2023-02-18T12:06:50.000Z,1
2023-02-18T12:10:23.000Z,0.9
2023-02-18T12:13:58.000Z,1.4
2023-02-18T12:17:31.000Z,1.4
2023-02-18T12:21:04.000Z,0.9
2023-02-18T12:24:37.000Z,0.7
2023-02-18T12:28:09.000Z,1
2023-02-18T12:31:00.000Z,1.1
2023-02-18T12:34:34.000Z,1.2
2023-02-18T12:38:07.000Z,1.3
2023-02-18T12:41:40.000Z,1.2
2023-02-18T12:45:12.000Z,1.1
2023-02-18T12:48:45.000Z,1.3
2023-02-18T12:52:18.000Z,1.1
2023-02-18T12:55:50.000Z,1
2023-02-18T12:59:23.000Z,1.2
2023-02-18T13:02:55.000Z,1.2
2023-02-18T13:06:28.000Z,1
2023-02-18T13:09:19.000Z,1
2023-02-18T13:12:52.000Z,1.1
2023-02-18T13:16:25.000Z,1.1
2023-02-18T13:19:57.000Z,1
2023-02-18T13:23:30.000Z,2.4
2023-02-18T13:27:03.000Z,1.2
2023-02-18T13:30:35.000Z,1.4
2023-02-18T13:34:08.000Z,1.4
2023-02-18T13:37:41.000Z,1.3
2023-02-18T13:41:13.000Z,1.4
2023-02-18T13:44:46.000Z,2.3
2023-02-18T13:47:37.000Z,1.8
2023-02-18T13:51:10.000Z,2.3
2023-02-18T13:54:43.000Z,1.8
2023-02-18T13:58:17.000Z,1.4
2023-02-18T14:01:49.000Z,1.3
2023-02-18T14:05:22.000Z,1.5
2023-02-18T14:08:55.000Z,1.2
2023-02-18T14:12:28.000Z,1.4
2023-02-18T14:16:00.000Z,1.1
2023-02-18T14:19:33.000Z,1.4
2023-02-18T14:23:06.000Z,1.2
2023-02-18T14:25:57.000Z,1.4
2023-02-18T14:29:30.000Z,1.7
2023-02-18T14:33:03.000Z,1.1
2023-02-18T14:36:35.000Z,1.5
2023-02-18T14:40:08.000Z,1.3
2023-02-18T14:43:41.000Z,4.6
2023-02-18T14:47:13.000Z,8
2023-02-18T14:50:46.000Z,1
2023-02-18T14:54:18.000Z,1.9
2023-02-18T14:57:51.000Z,1.5
2023-02-18T15:01:24.000Z,1.8
2023-02-18T15:04:16.000Z,0.9
2023-02-18T15:07:48.000Z,0.9
2023-02-18T15:11:21.000Z,1.5
2023-02-18T15:14:54.000Z,1.3
2023-02-18T15:18:26.000Z,1.8
2023-02-18T15:21:59.000Z,0.8
2023-02-18T15:25:31.000Z,0.8
2023-02-18T15:29:04.000Z,0.8
2023-02-18T15:32:37.000Z,0.7
2023-02-18T15:36:10.000Z,0.5
2023-02-18T15:39:42.000Z,1.7
2023-02-18T15:42:33.000Z,0.8
2023-02-18T15:46:06.000Z,0.6
2023-02-18T15:49:39.000Z,0.5
2023-02-18T15:53:16.000Z,0.5
2023-02-18T15:56:49.000Z,0.4
2023-02-18T16:00:21.000Z,0.9
2023-02-18T16:03:54.000Z,1
2023-02-18T16:07:27.000Z,0.4
2023-02-18T16:10:59.000Z,0.6
2023-02-18T16:14:33.000Z,0.6
2023-02-18T16:18:06.000Z,1.6
2023-02-18T16:20:57.000Z,0.9
2023-02-18T16:24:30.000Z,1.6
2023-02-18T16:28:02.000Z,0.8
2023-02-18T16:31:35.000Z,1.2
2023-02-18T16:35:08.000Z,1.1
2023-02-18T16:38:40.000Z,0.6
2023-02-18T16:42:13.000Z,0.6
2023-02-18T16:45:46.000Z,0.6
2023-02-18T16:49:18.000Z,1.7
2023-02-18T16:52:51.000Z,2
2023-02-18T16:56:24.000Z,2
2023-02-18T16:59:15.000Z,1.2
2023-02-18T17:02:48.000Z,0.8
2023-02-18T17:06:20.000Z,2
2023-02-18T17:09:53.000Z,0.6
2023-02-18T17:13:26.000Z,1
2023-02-18T17:16:58.000Z,1.5
2023-02-18T17:20:31.000Z,1.7
2023-02-18T17:24:04.000Z,0.7
2023-02-18T17:27:37.000Z,1.6
2023-02-18T17:31:12.000Z,2.1
2023-02-18T17:34:45.000Z,2.1
2023-02-18T17:37:36.000Z,1.3
2023-02-18T17:41:09.000Z,1.5
2023-02-18T17:44:41.000Z,1.2
2023-02-18T17:48:14.000Z,1.2
2023-02-18T17:51:47.000Z,1
2023-02-18T17:55:23.000Z,0.9
2023-02-18T17:58:55.000Z,1
2023-02-18T18:02:28.000Z,1.5
2023-02-18T18:06:01.000Z,1.2
2023-02-18T18:09:34.000Z,1.3
2023-02-18T18:13:07.000Z,3.1
2023-02-18T18:15:58.000Z,3.7
2023-02-18T18:19:31.000Z,2.7
2023-02-18T18:23:03.000Z,2.4
2023-02-18T18:26:36.000Z,2.6
2023-02-18T18:30:08.000Z,1.8
2023-02-18T18:33:41.000Z,1.2
2023-02-18T18:37:14.000Z,1.4
2023-02-18T18:40:47.000Z,1
2023-02-18T18:44:19.000Z,0.8
2023-02-18T18:47:52.000Z,1.3
2023-02-18T18:51:25.000Z,0.9
2023-02-18T18:54:16.000Z,1
2023-02-18T18:57:48.000Z,1.3
2023-02-18T19:01:21.000Z,1.2
2023-02-18T19:04:54.000Z,1.3
2023-02-18T19:08:27.000Z,1.7
2023-02-18T19:11:59.000Z,1.4
2023-02-18T19:15:32.000Z,1.8
2023-02-18T19:19:05.000Z,2.2
2023-02-18T19:22:39.000Z,2
2023-02-18T19:26:12.000Z,2.2
2023-02-18T19:29:44.000Z,2.7
2023-02-18T19:32:35.000Z,2.7
2023-02-18T19:36:08.000Z,3.3
2023-02-18T19:39:41.000Z,3.2
2023-02-18T19:43:13.000Z,2.8
2023-02-18T19:46:46.000Z,3
2023-02-18T19:50:18.000Z,2.5
2023-02-18T19:53:51.000Z,2.3
2023-02-18T19:57:24.000Z,2
2023-02-18T20:00:56.000Z,2
2023-02-18T20:04:29.000Z,2.1
2023-02-18T20:08:02.000Z,1.8
2023-02-18T20:10:52.000Z,2
2023-02-18T20:14:25.000Z,2.3
2023-02-18T20:17:58.000Z,1.9
2023-02-18T20:21:31.000Z,2
2023-02-18T20:25:03.000Z,1.9
2023-02-18T20:28:36.000Z,4.6
2023-02-18T20:32:09.000Z,3
2023-02-18T20:35:44.000Z,2.5
2023-02-18T20:39:16.000Z,2.4
2023-02-18T20:42:49.000Z,2.4
2023-02-18T20:46:22.000Z,2.6
2023-02-18T20:49:13.000Z,2.8
2023-02-18T20:52:46.000Z,2.7
2023-02-18T20:56:18.000Z,3.3
2023-02-18T20:59:51.000Z,3.6
2023-02-18T21:03:24.000Z,3.2
2023-02-18T21:06:56.000Z,3.2
2023-02-18T21:10:29.000Z,3.2
2023-02-18T21:14:01.000Z,3.1
2023-02-18T21:17:34.000Z,3.1
2023-02-18T21:21:07.000Z,3
2023-02-18T21:24:39.000Z,2.8
2023-02-18T21:27:30.000Z,2.7
2023-02-18T21:31:03.000Z,2.3
2023-02-18T21:34:36.000Z,2.9
2023-02-18T21:38:12.000Z,2.7
2023-02-18T21:41:45.000Z,2.8
2023-02-18T21:45:18.000Z,4
2023-02-18T21:48:50.000Z,3.6
2023-02-18T21:52:23.000Z,3.3
2023-02-18T21:55:56.000Z,4.4
2023-02-18T21:59:29.000Z,3.8
2023-02-18T22:03:02.000Z,4.1
2023-02-18T22:05:53.000Z,4
2023-02-18T22:09:26.000Z,3.9
2023-02-18T22:12:59.000Z,4.8
2023-02-18T22:16:31.000Z,3.6
2023-02-18T22:20:04.000Z,3.5
2023-02-18T22:23:37.000Z,4
2023-02-18T22:27:09.000Z,3.6
2023-02-18T22:30:42.000Z,3.5
2023-02-18T22:34:15.000Z,3.9
2023-02-18T22:37:48.000Z,3.8
2023-02-18T22:41:20.000Z,3.9
2023-02-18T22:44:12.000Z,4
2023-02-18T22:47:44.000Z,4.3
2023-02-18T22:51:17.000Z,4.3
2023-02-18T22:54:50.000Z,4.2
2023-02-18T22:58:22.000Z,3.7
2023-02-18T23:01:55.000Z,4
2023-02-18T23:05:28.000Z,3.9
2023-02-18T23:09:00.000Z,4.1
2023-02-18T23:12:33.000Z,2.4
2023-02-18T23:16:06.000Z,2.1
2023-02-18T23:19:38.000Z,3.1
2023-02-18T23:22:30.000Z,3
2023-02-18T23:26:03.000Z,3.2
2023-02-18T23:29:35.000Z,2.9
2023-02-18T23:33:08.000Z,2.7
2023-02-18T23:36:41.000Z,3.1
2023-02-18T23:40:14.000Z,3.3
2023-02-18T23:43:46.000Z,3.8
2023-02-18T23:47:19.000Z,3.5
2023-02-18T23:50:52.000Z,3.4
2023-02-18T23:54:24.000Z,3.4
2023-02-18T23:57:57.000Z,3.6
